sensor_id;sensor_type;location;lat;lon;timestamp;P1;durP1;ratioP1;P2;durP2;ratioP2
44228;SDS011;29904;51.058;5.378;2023-04-04T00:00:09;2.63;;;1.30;;
44228;SDS011;29904;51.058;5.378;2023-04-04T00:02:36;4.18;;;1.40;;
44228;SDS011;29904;51.058;5.378;2023-04-04T00:05:02;3.45;;;1.48;;
44228;SDS011;29904;51.058;5.378;2023-04-04T00:07:29;2.45;;;1.25;;
44228;SDS011;29904;51.058;5.378;2023-04-04T00:09:54;2.22;;;1.30;;
44228;SDS011;29904;51.058;5.378;2023-04-04T00:12:20;4.03;;;1.23;;
44228;SDS011;29904;51.058;5.378;2023-04-04T00:14:46;3.00;;;1.40;;
44228;SDS011;29904;51.058;5.378;2023-04-04T00:17:12;2.65;;;1.33;;
44228;SDS011;29904;51.058;5.378;2023-04-04T00:19:38;3.28;;;1.30;;
44228;SDS011;29904;51.058;5.378;2023-04-04T00:22:04;3.40;;;1.60;;
44228;SDS011;29904;51.058;5.378;2023-04-04T00:24:29;2.85;;;1.40;;
44228;SDS011;29904;51.058;5.378;2023-04-04T00:26:55;3.13;;;1.63;;
44228;SDS011;29904;51.058;5.378;2023-04-04T00:29:21;4.00;;;1.45;;
44228;SDS011;29904;51.058;5.378;2023-04-04T00:31:47;2.80;;;1.30;;
44228;SDS011;29904;51.058;5.378;2023-04-04T00:34:14;3.53;;;1.30;;
44228;SDS011;29904;51.058;5.378;2023-04-04T00:36:40;2.87;;;1.30;;
44228;SDS011;29904;51.058;5.378;2023-04-04T00:39:06;2.10;;;1.17;;
44228;SDS011;29904;51.058;5.378;2023-04-04T00:41:32;2.57;;;1.30;;
44228;SDS011;29904;51.058;5.378;2023-04-04T00:43:59;2.67;;;1.27;;
44228;SDS011;29904;51.058;5.378;2023-04-04T00:46:26;2.95;;;1.33;;
44228;SDS011;29904;51.058;5.378;2023-04-04T00:48:53;3.10;;;1.48;;
44228;SDS011;29904;51.058;5.378;2023-04-04T00:51:20;3.50;;;1.40;;
44228;SDS011;29904;51.058;5.378;2023-04-04T00:53:46;3.65;;;1.25;;
44228;SDS011;29904;51.058;5.378;2023-04-04T00:56:12;2.05;;;1.17;;
44228;SDS011;29904;51.058;5.378;2023-04-04T00:58:39;2.20;;;1.30;;
44228;SDS011;29904;51.058;5.378;2023-04-04T01:01:06;2.42;;;1.23;;
44228;SDS011;29904;51.058;5.378;2023-04-04T01:03:34;2.33;;;1.40;;
44228;SDS011;29904;51.058;5.378;2023-04-04T01:06:01;2.75;;;1.40;;
44228;SDS011;29904;51.058;5.378;2023-04-04T01:08:30;3.90;;;1.80;;
44228;SDS011;29904;51.058;5.378;2023-04-04T01:10:57;4.82;;;1.65;;
44228;SDS011;29904;51.058;5.378;2023-04-04T01:13:22;4.60;;;1.73;;
44228;SDS011;29904;51.058;5.378;2023-04-04T01:15:52;2.72;;;1.65;;
44228;SDS011;29904;51.058;5.378;2023-04-04T01:18:19;3.00;;;1.70;;
44228;SDS011;29904;51.058;5.378;2023-04-04T01:20:55;3.00;;;1.60;;
44228;SDS011;29904;51.058;5.378;2023-04-04T01:23:29;3.40;;;1.30;;
44228;SDS011;29904;51.058;5.378;2023-04-04T01:26:07;2.40;;;1.33;;
44228;SDS011;29904;51.058;5.378;2023-04-04T01:28:33;2.67;;;1.38;;
44228;SDS011;29904;51.058;5.378;2023-04-04T01:31:00;3.85;;;1.45;;
44228;SDS011;29904;51.058;5.378;2023-04-04T01:33:30;2.72;;;1.30;;
44228;SDS011;29904;51.058;5.378;2023-04-04T01:36:10;2.40;;;1.40;;
44228;SDS011;29904;51.058;5.378;2023-04-04T01:41:30;4.13;;;1.58;;
44228;SDS011;29904;51.058;5.378;2023-04-04T01:43:58;3.17;;;1.60;;
44228;SDS011;29904;51.058;5.378;2023-04-04T01:46:26;2.35;;;1.40;;
44228;SDS011;29904;51.058;5.378;2023-04-04T01:48:52;3.53;;;1.48;;
44228;SDS011;29904;51.058;5.378;2023-04-04T01:51:18;2.75;;;1.40;;
44228;SDS011;29904;51.058;5.378;2023-04-04T01:53:45;3.28;;;1.50;;
44228;SDS011;29904;51.058;5.378;2023-04-04T01:56:10;3.28;;;1.45;;
44228;SDS011;29904;51.058;5.378;2023-04-04T01:58:37;3.07;;;1.60;;
44228;SDS011;29904;51.058;5.378;2023-04-04T02:01:05;4.70;;;1.52;;
44228;SDS011;29904;51.058;5.378;2023-04-04T02:03:30;3.53;;;1.47;;
44228;SDS011;29904;51.058;5.378;2023-04-04T02:05:57;2.08;;;1.15;;
44228;SDS011;29904;51.058;5.378;2023-04-04T02:08:25;2.50;;;1.30;;
44228;SDS011;29904;51.058;5.378;2023-04-04T02:10:51;4.18;;;1.60;;
44228;SDS011;29904;51.058;5.378;2023-04-04T02:13:16;2.72;;;1.55;;
44228;SDS011;29904;51.058;5.378;2023-04-04T02:15:44;4.97;;;1.40;;
44228;SDS011;29904;51.058;5.378;2023-04-04T02:18:10;2.53;;;1.40;;
44228;SDS011;29904;51.058;5.378;2023-04-04T02:20:35;3.07;;;1.60;;
44228;SDS011;29904;51.058;5.378;2023-04-04T02:23:01;3.30;;;1.60;;
44228;SDS011;29904;51.058;5.378;2023-04-04T02:25:27;3.63;;;1.40;;
44228;SDS011;29904;51.058;5.378;2023-04-04T02:27:53;2.77;;;1.60;;
44228;SDS011;29904;51.058;5.378;2023-04-04T02:30:20;3.20;;;1.52;;
44228;SDS011;29904;51.058;5.378;2023-04-04T02:32:46;3.13;;;1.70;;
44228;SDS011;29904;51.058;5.378;2023-04-04T02:35:13;4.90;;;1.90;;
44228;SDS011;29904;51.058;5.378;2023-04-04T02:37:42;4.25;;;1.70;;
44228;SDS011;29904;51.058;5.378;2023-04-04T02:40:09;3.28;;;1.80;;
44228;SDS011;29904;51.058;5.378;2023-04-04T02:42:35;3.88;;;1.80;;
44228;SDS011;29904;51.058;5.378;2023-04-04T02:45:07;3.10;;;1.65;;
44228;SDS011;29904;51.058;5.378;2023-04-04T02:47:34;3.40;;;1.73;;
44228;SDS011;29904;51.058;5.378;2023-04-04T02:50:00;3.03;;;1.63;;
44228;SDS011;29904;51.058;5.378;2023-04-04T02:52:26;4.20;;;2.10;;
44228;SDS011;29904;51.058;5.378;2023-04-04T02:54:51;2.47;;;1.80;;
44228;SDS011;29904;51.058;5.378;2023-04-04T02:57:17;4.07;;;2.00;;
44228;SDS011;29904;51.058;5.378;2023-04-04T02:59:43;4.25;;;1.90;;
44228;SDS011;29904;51.058;5.378;2023-04-04T03:02:08;3.05;;;1.65;;
44228;SDS011;29904;51.058;5.378;2023-04-04T03:04:34;3.65;;;1.80;;
44228;SDS011;29904;51.058;5.378;2023-04-04T03:07:02;2.78;;;1.58;;
44228;SDS011;29904;51.058;5.378;2023-04-04T03:09:28;3.50;;;1.65;;
44228;SDS011;29904;51.058;5.378;2023-04-04T03:11:53;2.90;;;1.70;;
44228;SDS011;29904;51.058;5.378;2023-04-04T03:14:21;3.25;;;1.70;;
44228;SDS011;29904;51.058;5.378;2023-04-04T03:16:47;3.20;;;1.70;;
44228;SDS011;29904;51.058;5.378;2023-04-04T03:19:16;2.47;;;1.65;;
44228;SDS011;29904;51.058;5.378;2023-04-04T03:21:42;3.27;;;1.50;;
44228;SDS011;29904;51.058;5.378;2023-04-04T03:24:08;2.85;;;1.70;;
44228;SDS011;29904;51.058;5.378;2023-04-04T03:26:33;6.00;;;2.50;;
44228;SDS011;29904;51.058;5.378;2023-04-04T03:29:01;3.90;;;2.20;;
44228;SDS011;29904;51.058;5.378;2023-04-04T03:31:28;3.13;;;1.80;;
44228;SDS011;29904;51.058;5.378;2023-04-04T03:33:54;2.88;;;1.55;;
44228;SDS011;29904;51.058;5.378;2023-04-04T03:36:25;4.45;;;2.10;;
44228;SDS011;29904;51.058;5.378;2023-04-04T03:38:50;5.45;;;2.20;;
44228;SDS011;29904;51.058;5.378;2023-04-04T03:41:16;3.50;;;1.83;;
44228;SDS011;29904;51.058;5.378;2023-04-04T03:43:42;3.50;;;2.10;;
44228;SDS011;29904;51.058;5.378;2023-04-04T03:46:09;4.05;;;1.90;;
44228;SDS011;29904;51.058;5.378;2023-04-04T03:48:34;3.30;;;1.67;;
44228;SDS011;29904;51.058;5.378;2023-04-04T03:51:02;3.47;;;1.70;;
44228;SDS011;29904;51.058;5.378;2023-04-04T03:53:28;4.22;;;2.10;;
44228;SDS011;29904;51.058;5.378;2023-04-04T03:55:54;3.63;;;2.00;;
44228;SDS011;29904;51.058;5.378;2023-04-04T03:58:21;3.50;;;2.00;;
44228;SDS011;29904;51.058;5.378;2023-04-04T04:00:47;3.15;;;1.90;;
44228;SDS011;29904;51.058;5.378;2023-04-04T04:03:13;3.78;;;1.98;;
44228;SDS011;29904;51.058;5.378;2023-04-04T04:05:39;3.47;;;1.90;;
44228;SDS011;29904;51.058;5.378;2023-04-04T04:08:05;6.20;;;2.00;;
44228;SDS011;29904;51.058;5.378;2023-04-04T04:10:31;2.55;;;1.63;;
44228;SDS011;29904;51.058;5.378;2023-04-04T04:12:58;4.30;;;2.00;;
44228;SDS011;29904;51.058;5.378;2023-04-04T04:15:25;3.80;;;2.10;;
44228;SDS011;29904;51.058;5.378;2023-04-04T04:17:51;4.78;;;2.13;;
44228;SDS011;29904;51.058;5.378;2023-04-04T04:20:17;4.47;;;1.97;;
44228;SDS011;29904;51.058;5.378;2023-04-04T04:22:45;5.00;;;2.20;;
44228;SDS011;29904;51.058;5.378;2023-04-04T04:25:11;4.10;;;2.00;;
44228;SDS011;29904;51.058;5.378;2023-04-04T04:27:40;3.40;;;1.98;;
44228;SDS011;29904;51.058;5.378;2023-04-04T04:30:06;4.83;;;2.00;;
44228;SDS011;29904;51.058;5.378;2023-04-04T04:32:33;4.15;;;2.10;;
44228;SDS011;29904;51.058;5.378;2023-04-04T04:35:01;6.00;;;2.30;;
44228;SDS011;29904;51.058;5.378;2023-04-04T04:37:27;4.72;;;2.30;;
44228;SDS011;29904;51.058;5.378;2023-04-04T04:39:52;4.82;;;2.10;;
44228;SDS011;29904;51.058;5.378;2023-04-04T04:42:20;3.58;;;2.20;;
44228;SDS011;29904;51.058;5.378;2023-04-04T04:44:46;5.40;;;2.30;;
44228;SDS011;29904;51.058;5.378;2023-04-04T04:47:12;4.45;;;2.40;;
44228;SDS011;29904;51.058;5.378;2023-04-04T04:49:40;5.37;;;2.43;;
44228;SDS011;29904;51.058;5.378;2023-04-04T04:52:08;3.80;;;2.15;;
44228;SDS011;29904;51.058;5.378;2023-04-04T04:54:34;4.20;;;2.20;;
44228;SDS011;29904;51.058;5.378;2023-04-04T04:57:00;4.23;;;2.20;;
44228;SDS011;29904;51.058;5.378;2023-04-04T04:59:26;3.42;;;2.10;;
44228;SDS011;29904;51.058;5.378;2023-04-04T05:01:53;4.47;;;2.20;;
44228;SDS011;29904;51.058;5.378;2023-04-04T05:04:19;4.85;;;2.33;;
44228;SDS011;29904;51.058;5.378;2023-04-04T05:06:45;3.53;;;2.10;;
44228;SDS011;29904;51.058;5.378;2023-04-04T05:09:10;4.97;;;2.40;;
44228;SDS011;29904;51.058;5.378;2023-04-04T05:14:58;4.32;;;2.20;;
44228;SDS011;29904;51.058;5.378;2023-04-04T05:17:24;4.47;;;2.40;;
44228;SDS011;29904;51.058;5.378;2023-04-04T05:19:50;3.80;;;2.00;;
44228;SDS011;29904;51.058;5.378;2023-04-04T05:22:16;4.25;;;2.05;;
44228;SDS011;29904;51.058;5.378;2023-04-04T05:24:42;4.93;;;2.30;;
44228;SDS011;29904;51.058;5.378;2023-04-04T05:27:07;3.97;;;2.27;;
44228;SDS011;29904;51.058;5.378;2023-04-04T05:29:33;4.07;;;2.10;;
44228;SDS011;29904;51.058;5.378;2023-04-04T05:31:59;3.90;;;2.20;;
44228;SDS011;29904;51.058;5.378;2023-04-04T05:34:25;4.35;;;2.35;;
44228;SDS011;29904;51.058;5.378;2023-04-04T05:36:51;3.45;;;2.30;;
44228;SDS011;29904;51.058;5.378;2023-04-04T05:39:18;4.40;;;2.25;;
44228;SDS011;29904;51.058;5.378;2023-04-04T05:41:44;4.33;;;2.57;;
44228;SDS011;29904;51.058;5.378;2023-04-04T05:44:10;5.70;;;2.40;;
44228;SDS011;29904;51.058;5.378;2023-04-04T05:46:36;6.75;;;2.55;;
44228;SDS011;29904;51.058;5.378;2023-04-04T05:49:02;4.10;;;2.42;;
44228;SDS011;29904;51.058;5.378;2023-04-04T05:51:27;4.13;;;2.58;;
44228;SDS011;29904;51.058;5.378;2023-04-04T05:53:53;5.83;;;2.70;;
44228;SDS011;29904;51.058;5.378;2023-04-04T05:56:19;5.63;;;2.60;;
44228;SDS011;29904;51.058;5.378;2023-04-04T05:58:45;5.57;;;2.70;;
44228;SDS011;29904;51.058;5.378;2023-04-04T06:01:11;5.53;;;2.53;;
44228;SDS011;29904;51.058;5.378;2023-04-04T06:03:37;4.38;;;2.30;;
44228;SDS011;29904;51.058;5.378;2023-04-04T06:06:03;4.75;;;2.42;;
44228;SDS011;29904;51.058;5.378;2023-04-04T06:08:32;4.77;;;2.63;;
44228;SDS011;29904;51.058;5.378;2023-04-04T06:10:58;5.20;;;2.60;;
44228;SDS011;29904;51.058;5.378;2023-04-04T06:13:25;4.68;;;2.85;;
44228;SDS011;29904;51.058;5.378;2023-04-04T06:15:51;4.97;;;2.70;;
44228;SDS011;29904;51.058;5.378;2023-04-04T06:18:17;6.95;;;3.35;;
44228;SDS011;29904;51.058;5.378;2023-04-04T06:20:43;4.65;;;2.50;;
44228;SDS011;29904;51.058;5.378;2023-04-04T06:23:08;3.90;;;2.47;;
44228;SDS011;29904;51.058;5.378;2023-04-04T06:25:34;5.28;;;2.40;;
44228;SDS011;29904;51.058;5.378;2023-04-04T06:28:02;5.45;;;2.33;;
44228;SDS011;29904;51.058;5.378;2023-04-04T06:30:28;4.32;;;2.10;;
44228;SDS011;29904;51.058;5.378;2023-04-04T06:32:54;4.82;;;2.20;;
44228;SDS011;29904;51.058;5.378;2023-04-04T06:35:22;5.65;;;2.60;;
44228;SDS011;29904;51.058;5.378;2023-04-04T06:37:53;4.68;;;2.20;;
44228;SDS011;29904;51.058;5.378;2023-04-04T06:40:21;4.70;;;2.40;;
44228;SDS011;29904;51.058;5.378;2023-04-04T06:42:47;5.47;;;2.53;;
44228;SDS011;29904;51.058;5.378;2023-04-04T06:45:14;5.13;;;2.50;;
44228;SDS011;29904;51.058;5.378;2023-04-04T06:47:41;5.38;;;2.50;;
44228;SDS011;29904;51.058;5.378;2023-04-04T06:50:08;5.68;;;2.70;;
44228;SDS011;29904;51.058;5.378;2023-04-04T06:52:34;6.35;;;2.40;;
44228;SDS011;29904;51.058;5.378;2023-04-04T06:55:00;4.57;;;2.47;;
44228;SDS011;29904;51.058;5.378;2023-04-04T06:57:26;6.70;;;2.80;;
44228;SDS011;29904;51.058;5.378;2023-04-04T06:59:52;6.30;;;2.83;;
44228;SDS011;29904;51.058;5.378;2023-04-04T07:02:18;6.93;;;3.45;;
44228;SDS011;29904;51.058;5.378;2023-04-04T07:04:44;6.65;;;2.85;;
44228;SDS011;29904;51.058;5.378;2023-04-04T07:07:10;5.40;;;3.25;;
44228;SDS011;29904;51.058;5.378;2023-04-04T07:09:36;7.22;;;3.17;;
44228;SDS011;29904;51.058;5.378;2023-04-04T07:12:02;5.15;;;2.88;;
44228;SDS011;29904;51.058;5.378;2023-04-04T07:14:28;8.00;;;2.80;;
44228;SDS011;29904;51.058;5.378;2023-04-04T07:16:54;7.80;;;2.88;;
44228;SDS011;29904;51.058;5.378;2023-04-04T07:19:20;4.73;;;2.50;;
44228;SDS011;29904;51.058;5.378;2023-04-04T07:21:48;4.40;;;2.22;;
44228;SDS011;29904;51.058;5.378;2023-04-04T07:24:14;3.92;;;2.28;;
44228;SDS011;29904;51.058;5.378;2023-04-04T07:26:43;3.78;;;2.28;;
44228;SDS011;29904;51.058;5.378;2023-04-04T07:29:08;4.32;;;2.22;;
44228;SDS011;29904;51.058;5.378;2023-04-04T07:31:34;4.55;;;2.22;;
44228;SDS011;29904;51.058;5.378;2023-04-04T07:34:00;6.70;;;2.70;;
44228;SDS011;29904;51.058;5.378;2023-04-04T07:36:27;3.78;;;1.83;;
44228;SDS011;29904;51.058;5.378;2023-04-04T07:38:53;4.65;;;1.90;;
44228;SDS011;29904;51.058;5.378;2023-04-04T07:41:19;4.88;;;1.95;;
44228;SDS011;29904;51.058;5.378;2023-04-04T07:43:46;4.88;;;2.15;;
44228;SDS011;29904;51.058;5.378;2023-04-04T07:46:12;4.13;;;1.90;;
44228;SDS011;29904;51.058;5.378;2023-04-04T07:48:40;4.38;;;2.00;;
44228;SDS011;29904;51.058;5.378;2023-04-04T07:51:06;4.63;;;1.80;;
44228;SDS011;29904;51.058;5.378;2023-04-04T07:53:32;3.47;;;1.87;;
44228;SDS011;29904;51.058;5.378;2023-04-04T07:55:57;4.57;;;2.23;;
44228;SDS011;29904;51.058;5.378;2023-04-04T07:58:23;4.93;;;1.80;;
44228;SDS011;29904;51.058;5.378;2023-04-04T08:00:49;4.43;;;1.77;;
44228;SDS011;29904;51.058;5.378;2023-04-04T08:03:16;5.38;;;1.90;;
44228;SDS011;29904;51.058;5.378;2023-04-04T08:05:43;3.43;;;1.80;;
44228;SDS011;29904;51.058;5.378;2023-04-04T08:08:11;3.30;;;1.60;;
44228;SDS011;29904;51.058;5.378;2023-04-04T08:10:37;4.63;;;1.98;;
44228;SDS011;29904;51.058;5.378;2023-04-04T08:13:03;5.53;;;1.70;;
44228;SDS011;29904;51.058;5.378;2023-04-04T08:15:30;4.53;;;1.80;;
44228;SDS011;29904;51.058;5.378;2023-04-04T08:17:56;3.23;;;1.60;;
44228;SDS011;29904;51.058;5.378;2023-04-04T08:20:21;6.23;;;1.70;;
44228;SDS011;29904;51.058;5.378;2023-04-04T08:22:47;3.40;;;1.60;;
44228;SDS011;29904;51.058;5.378;2023-04-04T08:25:15;4.65;;;1.35;;
44228;SDS011;29904;51.058;5.378;2023-04-04T08:27:41;3.40;;;1.50;;
44228;SDS011;29904;51.058;5.378;2023-04-04T08:30:09;3.83;;;1.52;;
44228;SDS011;29904;51.058;5.378;2023-04-04T08:32:35;3.80;;;1.40;;
44228;SDS011;29904;51.058;5.378;2023-04-04T08:35:01;3.03;;;1.40;;
44228;SDS011;29904;51.058;5.378;2023-04-04T08:37:27;2.63;;;1.50;;
44228;SDS011;29904;51.058;5.378;2023-04-04T08:39:55;2.90;;;1.20;;
44228;SDS011;29904;51.058;5.378;2023-04-04T08:42:23;3.13;;;1.40;;
44228;SDS011;29904;51.058;5.378;2023-04-04T08:44:52;3.20;;;1.30;;
44228;SDS011;29904;51.058;5.378;2023-04-04T08:47:19;5.50;;;1.40;;
44228;SDS011;29904;51.058;5.378;2023-04-04T08:49:48;3.88;;;1.58;;
44228;SDS011;29904;51.058;5.378;2023-04-04T08:52:16;4.43;;;1.40;;
44228;SDS011;29904;51.058;5.378;2023-04-04T08:54:44;5.78;;;1.55;;
44228;SDS011;29904;51.058;5.378;2023-04-04T08:57:12;3.38;;;1.70;;
44228;SDS011;29904;51.058;5.378;2023-04-04T08:59:38;3.55;;;1.55;;
44228;SDS011;29904;51.058;5.378;2023-04-04T09:02:13;4.75;;;1.63;;
44228;SDS011;29904;51.058;5.378;2023-04-04T09:04:43;3.40;;;1.52;;
44228;SDS011;29904;51.058;5.378;2023-04-04T09:07:12;5.50;;;1.60;;
44228;SDS011;29904;51.058;5.378;2023-04-04T09:09:40;4.93;;;1.88;;
44228;SDS011;29904;51.058;5.378;2023-04-04T09:12:14;3.50;;;1.40;;
44228;SDS011;29904;51.058;5.378;2023-04-04T09:14:42;4.03;;;1.38;;
44228;SDS011;29904;51.058;5.378;2023-04-04T09:17:10;3.83;;;1.50;;
44228;SDS011;29904;51.058;5.378;2023-04-04T09:19:36;5.00;;;1.60;;
44228;SDS011;29904;51.058;5.378;2023-04-04T09:22:05;3.17;;;1.63;;
44228;SDS011;29904;51.058;5.378;2023-04-04T09:24:36;4.28;;;1.58;;
44228;SDS011;29904;51.058;5.378;2023-04-04T09:27:09;3.30;;;1.58;;
44228;SDS011;29904;51.058;5.378;2023-04-04T09:29:36;3.60;;;1.40;;
44228;SDS011;29904;51.058;5.378;2023-04-04T09:32:06;4.63;;;1.53;;
44228;SDS011;29904;51.058;5.378;2023-04-04T09:34:32;3.05;;;1.52;;
44228;SDS011;29904;51.058;5.378;2023-04-04T09:36:58;3.13;;;1.40;;
44228;SDS011;29904;51.058;5.378;2023-04-04T09:39:24;3.70;;;1.52;;
44228;SDS011;29904;51.058;5.378;2023-04-04T09:41:50;3.92;;;1.30;;
44228;SDS011;29904;51.058;5.378;2023-04-04T09:44:16;3.17;;;1.50;;
44228;SDS011;29904;51.058;5.378;2023-04-04T09:46:42;3.10;;;1.40;;
44228;SDS011;29904;51.058;5.378;2023-04-04T09:49:10;4.10;;;1.53;;
44228;SDS011;29904;51.058;5.378;2023-04-04T09:51:46;3.70;;;1.60;;
44228;SDS011;29904;51.058;5.378;2023-04-04T09:54:19;3.78;;;1.50;;
44228;SDS011;29904;51.058;5.378;2023-04-04T09:56:46;3.35;;;1.50;;
44228;SDS011;29904;51.058;5.378;2023-04-04T09:59:13;5.00;;;1.67;;
44228;SDS011;29904;51.058;5.378;2023-04-04T10:01:39;3.63;;;1.42;;
44228;SDS011;29904;51.058;5.378;2023-04-04T10:04:06;4.10;;;1.42;;
44228;SDS011;29904;51.058;5.378;2023-04-04T10:06:35;3.00;;;1.52;;
44228;SDS011;29904;51.058;5.378;2023-04-04T10:09:01;3.55;;;1.40;;
44228;SDS011;29904;51.058;5.378;2023-04-04T10:11:32;2.88;;;1.50;;
44228;SDS011;29904;51.058;5.378;2023-04-04T10:14:00;3.72;;;1.75;;
44228;SDS011;29904;51.058;5.378;2023-04-04T10:16:30;4.80;;;1.40;;
44228;SDS011;29904;51.058;5.378;2023-04-04T10:18:57;2.50;;;1.35;;
44228;SDS011;29904;51.058;5.378;2023-04-04T10:21:25;4.75;;;1.50;;
44228;SDS011;29904;51.058;5.378;2023-04-04T10:23:52;3.97;;;1.45;;
44228;SDS011;29904;51.058;5.378;2023-04-04T10:26:19;3.43;;;1.70;;
44228;SDS011;29904;51.058;5.378;2023-04-04T10:28:46;4.20;;;1.60;;
44228;SDS011;29904;51.058;5.378;2023-04-04T10:36:49;3.45;;;1.60;;
44228;SDS011;29904;51.058;5.378;2023-04-04T10:39:25;3.03;;;1.75;;
44228;SDS011;29904;51.058;5.378;2023-04-04T10:41:54;2.80;;;1.30;;
44228;SDS011;29904;51.058;5.378;2023-04-04T10:46:56;3.37;;;1.70;;
44228;SDS011;29904;51.058;5.378;2023-04-04T10:49:23;3.20;;;1.60;;
44228;SDS011;29904;51.058;5.378;2023-04-04T10:51:51;3.87;;;1.90;;
44228;SDS011;29904;51.058;5.378;2023-04-04T10:54:18;4.10;;;1.67;;
44228;SDS011;29904;51.058;5.378;2023-04-04T10:56:45;3.42;;;1.73;;
44228;SDS011;29904;51.058;5.378;2023-04-04T10:59:12;3.75;;;1.85;;
44228;SDS011;29904;51.058;5.378;2023-04-04T11:04:20;3.45;;;1.90;;
44228;SDS011;29904;51.058;5.378;2023-04-04T11:07:14;4.70;;;1.80;;
44228;SDS011;29904;51.058;5.378;2023-04-04T11:09:47;4.75;;;1.70;;
44228;SDS011;29904;51.058;5.378;2023-04-04T11:12:13;2.63;;;1.38;;
44228;SDS011;29904;51.058;5.378;2023-04-04T11:15:18;3.47;;;1.70;;
44228;SDS011;29904;51.058;5.378;2023-04-04T11:20:13;3.55;;;1.90;;
44228;SDS011;29904;51.058;5.378;2023-04-04T11:22:41;4.40;;;1.67;;
44228;SDS011;29904;51.058;5.378;2023-04-04T11:28:13;3.63;;;2.00;;
44228;SDS011;29904;51.058;5.378;2023-04-04T11:30:52;3.70;;;1.90;;
44228;SDS011;29904;51.058;5.378;2023-04-04T11:39:06;3.55;;;1.45;;
44228;SDS011;29904;51.058;5.378;2023-04-04T11:42:01;3.22;;;1.67;;
44228;SDS011;29904;51.058;5.378;2023-04-04T11:47:22;2.30;;;1.50;;
44228;SDS011;29904;51.058;5.378;2023-04-04T11:49:48;3.53;;;1.98;;
44228;SDS011;29904;51.058;5.378;2023-04-04T11:52:16;3.70;;;1.83;;
44228;SDS011;29904;51.058;5.378;2023-04-04T11:54:44;3.22;;;1.80;;
44228;SDS011;29904;51.058;5.378;2023-04-04T11:57:12;3.08;;;1.50;;
44228;SDS011;29904;51.058;5.378;2023-04-04T11:59:43;3.80;;;1.60;;
44228;SDS011;29904;51.058;5.378;2023-04-04T12:02:15;4.07;;;1.80;;
44228;SDS011;29904;51.058;5.378;2023-04-04T12:04:45;4.20;;;1.60;;
44228;SDS011;29904;51.058;5.378;2023-04-04T12:07:12;3.28;;;1.80;;
44228;SDS011;29904;51.058;5.378;2023-04-04T12:09:41;3.78;;;1.88;;
44228;SDS011;29904;51.058;5.378;2023-04-04T12:12:16;4.40;;;1.90;;
44228;SDS011;29904;51.058;5.378;2023-04-04T12:14:42;3.40;;;1.80;;
44228;SDS011;29904;51.058;5.378;2023-04-04T12:17:08;4.32;;;1.80;;
44228;SDS011;29904;51.058;5.378;2023-04-04T12:19:37;6.28;;;2.08;;
44228;SDS011;29904;51.058;5.378;2023-04-04T12:22:04;4.70;;;1.80;;
44228;SDS011;29904;51.058;5.378;2023-04-04T12:24:31;4.30;;;2.00;;
44228;SDS011;29904;51.058;5.378;2023-04-04T12:26:58;5.65;;;1.90;;
44228;SDS011;29904;51.058;5.378;2023-04-04T12:29:27;4.97;;;1.90;;
44228;SDS011;29904;51.058;5.378;2023-04-04T12:32:00;4.55;;;2.00;;
44228;SDS011;29904;51.058;5.378;2023-04-04T12:34:33;3.58;;;1.70;;
44228;SDS011;29904;51.058;5.378;2023-04-04T12:37:07;4.38;;;1.98;;
44228;SDS011;29904;51.058;5.378;2023-04-04T12:39:35;3.67;;;2.10;;
44228;SDS011;29904;51.058;5.378;2023-04-04T12:42:10;4.90;;;2.00;;
44228;SDS011;29904;51.058;5.378;2023-04-04T12:44:37;4.32;;;2.33;;
44228;SDS011;29904;51.058;5.378;2023-04-04T12:47:07;4.67;;;2.00;;
44228;SDS011;29904;51.058;5.378;2023-04-04T12:49:40;3.80;;;2.30;;
44228;SDS011;29904;51.058;5.378;2023-04-04T12:54:47;4.17;;;2.20;;
44228;SDS011;29904;51.058;5.378;2023-04-04T12:57:23;3.13;;;1.95;;
44228;SDS011;29904;51.058;5.378;2023-04-04T12:59:49;6.23;;;2.47;;
44228;SDS011;29904;51.058;5.378;2023-04-04T13:02:20;5.65;;;2.38;;
44228;SDS011;29904;51.058;5.378;2023-04-04T13:04:47;5.75;;;2.40;;
44228;SDS011;29904;51.058;5.378;2023-04-04T13:07:20;4.00;;;2.20;;
44228;SDS011;29904;51.058;5.378;2023-04-04T13:09:52;5.45;;;2.40;;
44228;SDS011;29904;51.058;5.378;2023-04-04T13:12:19;8.75;;;2.45;;
44228;SDS011;29904;51.058;5.378;2023-04-04T13:15:01;5.53;;;2.30;;
44228;SDS011;29904;51.058;5.378;2023-04-04T13:17:44;4.72;;;2.22;;
44228;SDS011;29904;51.058;5.378;2023-04-04T13:20:11;4.43;;;2.33;;
44228;SDS011;29904;51.058;5.378;2023-04-04T13:22:40;5.00;;;2.40;;
44228;SDS011;29904;51.058;5.378;2023-04-04T13:25:07;4.88;;;1.98;;
44228;SDS011;29904;51.058;5.378;2023-04-04T13:27:34;5.47;;;2.20;;
44228;SDS011;29904;51.058;5.378;2023-04-04T13:30:05;3.58;;;2.05;;
44228;SDS011;29904;51.058;5.378;2023-04-04T13:32:32;4.07;;;2.10;;
44228;SDS011;29904;51.058;5.378;2023-04-04T13:34:58;5.80;;;2.37;;
44228;SDS011;29904;51.058;5.378;2023-04-04T13:37:23;4.67;;;2.20;;
44228;SDS011;29904;51.058;5.378;2023-04-04T13:39:50;4.13;;;2.05;;
44228;SDS011;29904;51.058;5.378;2023-04-04T13:42:16;4.22;;;1.90;;
44228;SDS011;29904;51.058;5.378;2023-04-04T13:44:42;4.43;;;2.50;;
44228;SDS011;29904;51.058;5.378;2023-04-04T13:47:08;5.80;;;2.53;;
44228;SDS011;29904;51.058;5.378;2023-04-04T13:49:33;4.65;;;2.30;;
44228;SDS011;29904;51.058;5.378;2023-04-04T13:51:59;6.15;;;2.50;;
44228;SDS011;29904;51.058;5.378;2023-04-04T13:54:25;4.28;;;2.30;;
44228;SDS011;29904;51.058;5.378;2023-04-04T13:56:51;5.20;;;2.60;;
44228;SDS011;29904;51.058;5.378;2023-04-04T13:59:17;4.47;;;2.30;;
44228;SDS011;29904;51.058;5.378;2023-04-04T14:01:42;3.80;;;2.10;;
44228;SDS011;29904;51.058;5.378;2023-04-04T14:04:08;6.78;;;2.50;;
44228;SDS011;29904;51.058;5.378;2023-04-04T14:06:34;4.90;;;2.30;;
44228;SDS011;29904;51.058;5.378;2023-04-04T14:08:59;5.20;;;2.20;;
44228;SDS011;29904;51.058;5.378;2023-04-04T14:11:25;5.57;;;2.53;;
44228;SDS011;29904;51.058;5.378;2023-04-04T14:13:55;5.03;;;2.50;;
44228;SDS011;29904;51.058;5.378;2023-04-04T14:16:21;4.45;;;2.47;;
44228;SDS011;29904;51.058;5.378;2023-04-04T14:18:47;5.78;;;2.90;;
44228;SDS011;29904;51.058;5.378;2023-04-04T14:21:15;4.95;;;2.45;;
44228;SDS011;29904;51.058;5.378;2023-04-04T14:23:41;6.60;;;2.70;;
44228;SDS011;29904;51.058;5.378;2023-04-04T14:26:07;4.53;;;2.50;;
44228;SDS011;29904;51.058;5.378;2023-04-04T14:28:33;5.13;;;2.50;;
44228;SDS011;29904;51.058;5.378;2023-04-04T14:30:59;5.20;;;2.30;;
44228;SDS011;29904;51.058;5.378;2023-04-04T14:33:25;5.55;;;2.53;;
44228;SDS011;29904;51.058;5.378;2023-04-04T14:35:51;6.75;;;2.70;;
44228;SDS011;29904;51.058;5.378;2023-04-04T14:38:17;5.40;;;2.88;;
44228;SDS011;29904;51.058;5.378;2023-04-04T14:40:43;5.30;;;2.53;;
44228;SDS011;29904;51.058;5.378;2023-04-04T14:43:11;4.80;;;2.53;;
44228;SDS011;29904;51.058;5.378;2023-04-04T14:45:37;4.97;;;2.30;;
44228;SDS011;29904;51.058;5.378;2023-04-04T14:48:03;6.20;;;2.50;;
44228;SDS011;29904;51.058;5.378;2023-04-04T14:50:31;4.60;;;2.15;;
44228;SDS011;29904;51.058;5.378;2023-04-04T14:52:57;5.63;;;2.50;;
44228;SDS011;29904;51.058;5.378;2023-04-04T14:55:23;3.87;;;2.20;;
44228;SDS011;29904;51.058;5.378;2023-04-04T14:57:51;4.75;;;2.30;;
44228;SDS011;29904;51.058;5.378;2023-04-04T15:00:18;5.00;;;2.40;;
44228;SDS011;29904;51.058;5.378;2023-04-04T15:02:48;5.43;;;2.20;;
44228;SDS011;29904;51.058;5.378;2023-04-04T15:05:16;5.68;;;2.47;;
44228;SDS011;29904;51.058;5.378;2023-04-04T15:07:46;4.65;;;2.45;;
44228;SDS011;29904;51.058;5.378;2023-04-04T15:10:11;5.70;;;2.40;;
44228;SDS011;29904;51.058;5.378;2023-04-04T15:12:37;5.72;;;2.58;;
44228;SDS011;29904;51.058;5.378;2023-04-04T15:15:03;4.18;;;2.20;;
44228;SDS011;29904;51.058;5.378;2023-04-04T15:17:30;6.00;;;2.50;;
44228;SDS011;29904;51.058;5.378;2023-04-04T15:19:56;6.60;;;2.45;;
44228;SDS011;29904;51.058;5.378;2023-04-04T15:22:23;4.00;;;2.08;;